createdAt,value
2023-02-24T00:02:00.280Z,18.90
2023-02-24T00:04:31.315Z,22.00
2023-02-24T00:06:59.834Z,19.95
2023-02-24T00:09:29.944Z,19.33
2023-02-24T00:12:03.264Z,18.70
2023-02-24T00:14:35.963Z,18.83
2023-02-24T00:17:04.190Z,21.98
2023-02-24T00:19:35.077Z,17.55
2023-02-24T00:22:04.684Z,18.50
2023-02-24T00:24:32.133Z,19.88
2023-02-24T00:27:01.438Z,21.67
2023-02-24T00:29:29.856Z,18.83
2023-02-24T00:32:03.699Z,20.60
2023-02-24T00:34:35.249Z,18.45
2023-02-24T00:37:03.372Z,18.88
2023-02-24T00:39:32.763Z,20.98
2023-02-24T00:42:05.672Z,19.10
2023-02-24T00:44:37.315Z,18.30
2023-02-24T00:47:07.307Z,18.00
2023-02-24T00:49:42.016Z,18.55
2023-02-24T00:52:18.964Z,17.20
2023-02-24T00:54:48.527Z,17.85
2023-02-24T00:57:21.280Z,19.95
2023-02-24T00:59:51.243Z,20.67
2023-02-24T01:02:18.840Z,17.02
2023-02-24T01:04:46.344Z,19.30
2023-02-24T01:07:14.104Z,17.88
2023-02-24T01:09:42.186Z,18.63
2023-02-24T01:12:32.439Z,20.27
2023-02-24T01:14:59.915Z,18.75
2023-02-24T01:17:27.440Z,18.58
2023-02-24T01:19:55.094Z,18.73
2023-02-24T01:22:22.958Z,18.48
2023-02-24T01:24:50.945Z,19.30
2023-02-24T01:27:19.396Z,18.05
2023-02-24T01:29:48.736Z,18.60
2023-02-24T01:32:19.891Z,18.23
2023-02-24T01:34:48.105Z,16.88
2023-02-24T01:37:19.486Z,17.98
2023-02-24T01:39:47.860Z,16.75
2023-02-24T01:42:20.691Z,16.23
2023-02-24T01:44:48.083Z,19.27
2023-02-24T01:47:20.664Z,17.50
2023-02-24T01:49:52.572Z,18.13
2023-02-24T01:52:24.124Z,17.77
2023-02-24T01:55:01.551Z,18.35
2023-02-24T01:57:32.439Z,17.30
2023-02-24T02:00:10.198Z,16.23
2023-02-24T02:02:43.859Z,17.00
2023-02-24T02:05:11.804Z,19.05
2023-02-24T02:07:41.468Z,18.70
2023-02-24T02:10:10.180Z,19.15
2023-02-24T02:12:44.133Z,16.75
2023-02-24T02:15:14.420Z,17.57
2023-02-24T02:18:02.994Z,15.18
2023-02-24T02:20:56.775Z,17.83
2023-02-24T02:23:36.583Z,14.38
2023-02-24T02:26:07.290Z,16.38
2023-02-24T02:29:12.726Z,16.45
2023-02-24T02:32:34.777Z,18.17
2023-02-24T02:35:11.268Z,20.23
2023-02-24T02:38:04.722Z,19.17
2023-02-24T02:40:38.847Z,15.13
2023-02-24T02:43:25.844Z,19.15
2023-02-24T02:46:11.121Z,15.55
2023-02-24T02:48:48.260Z,14.98
2023-02-24T02:51:25.181Z,15.77
2023-02-24T02:53:57.019Z,16.15
2023-02-24T02:56:33.077Z,14.57
2023-02-24T02:59:01.886Z,14.15
2023-02-24T03:01:33.807Z,16.42
2023-02-24T03:04:05.966Z,15.88
2023-02-24T03:06:38.747Z,16.75
2023-02-24T03:09:15.874Z,16.67
2023-02-24T03:11:48.269Z,14.25
2023-02-24T03:14:19.300Z,15.38
2023-02-24T03:16:49.828Z,15.18
2023-02-24T03:19:24.673Z,15.10
2023-02-24T03:22:02.331Z,16.83
2023-02-24T03:24:29.587Z,16.75
2023-02-24T03:27:07.992Z,14.30
2023-02-24T03:29:49.006Z,14.80
2023-02-24T03:32:27.197Z,13.77
2023-02-24T03:35:19.410Z,13.90
2023-02-24T03:37:47.429Z,14.18
2023-02-24T03:40:15.732Z,14.27
2023-02-24T03:42:50.010Z,15.32
2023-02-24T03:45:18.297Z,18.48
2023-02-24T03:47:46.603Z,15.15
2023-02-24T03:50:21.898Z,14.50
2023-02-24T03:53:18.027Z,14.60
2023-02-24T03:58:38.533Z,14.77
2023-02-24T04:01:19.513Z,14.20
2023-02-24T04:04:06.035Z,15.57
2023-02-24T04:06:50.315Z,14.30
2023-02-24T04:09:26.812Z,14.90
2023-02-24T04:12:05.215Z,14.13
2023-02-24T04:15:00.582Z,13.20
2023-02-24T04:17:38.412Z,12.60
2023-02-24T04:20:20.388Z,15.27
2023-02-24T04:22:59.560Z,12.45
2023-02-24T04:25:28.024Z,12.23
2023-02-24T04:28:00.679Z,12.30
2023-02-24T04:30:33.912Z,13.23
2023-02-24T04:33:01.416Z,12.57
2023-02-24T04:35:28.955Z,12.55
2023-02-24T04:37:57.031Z,14.10
2023-02-24T04:40:24.458Z,14.43
2023-02-24T04:42:53.470Z,13.23
2023-02-24T04:45:25.404Z,13.38
2023-02-24T04:48:00.781Z,11.82
2023-02-24T04:50:34.068Z,13.55
2023-02-24T04:53:08.004Z,13.15
2023-02-24T04:55:40.276Z,15.20
2023-02-24T04:58:11.996Z,12.35
2023-02-24T05:00:41.637Z,13.35
2023-02-24T05:03:11.629Z,13.45
2023-02-24T05:05:39.253Z,13.38
2023-02-24T05:08:09.494Z,14.30
2023-02-24T05:10:43.865Z,12.70
2023-02-24T05:13:17.272Z,12.70
2023-02-24T05:15:46.160Z,12.52
2023-02-24T05:18:16.996Z,11.25
2023-02-24T05:21:07.387Z,11.73
2023-02-24T05:23:39.240Z,12.18
2023-02-24T05:26:08.987Z,10.02
2023-02-24T05:28:40.608Z,9.88
2023-02-24T05:31:17.521Z,10.73
2023-02-24T05:33:48.025Z,10.93
2023-02-24T05:36:18.201Z,12.73
2023-02-24T05:38:56.538Z,10.85
2023-02-24T05:41:32.471Z,12.00
2023-02-24T05:44:02.372Z,10.98
2023-02-24T05:46:32.865Z,11.93
2023-02-24T05:49:03.159Z,11.93
2023-02-24T05:51:35.426Z,10.73
2023-02-24T05:54:08.126Z,12.38
2023-02-24T05:56:38.632Z,12.07
2023-02-24T05:59:09.011Z,11.45
2023-02-24T06:01:41.303Z,10.30
2023-02-24T06:04:09.750Z,11.88
2023-02-24T06:06:39.411Z,11.73
2023-02-24T06:09:10.949Z,10.20
2023-02-24T06:11:42.607Z,11.10
2023-02-24T06:14:11.944Z,10.07
2023-02-24T06:16:41.600Z,11.80
2023-02-24T06:19:10.486Z,11.77
2023-02-24T06:21:41.281Z,11.88
2023-02-24T06:24:14.538Z,11.88
2023-02-24T06:26:43.393Z,10.32
2023-02-24T06:29:15.791Z,10.50
2023-02-24T06:31:44.235Z,11.00
2023-02-24T06:34:13.860Z,10.00
2023-02-24T06:36:43.157Z,9.75
2023-02-24T06:39:14.411Z,11.25
2023-02-24T06:41:42.630Z,9.90
2023-02-24T06:44:09.993Z,11.52
2023-02-24T06:46:37.661Z,11.43
2023-02-24T06:49:06.484Z,10.63
2023-02-24T06:51:33.924Z,9.82
2023-02-24T06:54:02.757Z,11.13
2023-02-24T06:56:32.370Z,9.23
2023-02-24T06:58:59.882Z,8.23
2023-02-24T07:01:29.057Z,10.93
2023-02-24T07:04:07.675Z,11.73
2023-02-24T07:06:38.285Z,9.75
2023-02-24T07:09:08.963Z,9.18
2023-02-24T07:11:37.821Z,9.30
2023-02-24T07:14:06.112Z,10.00
2023-02-24T07:16:35.276Z,10.00
2023-02-24T07:19:13.773Z,9.63
2023-02-24T07:21:46.612Z,11.85
2023-02-24T07:24:20.207Z,11.80
2023-02-24T07:26:51.735Z,9.23
2023-02-24T07:29:19.093Z,10.10
2023-02-24T07:31:48.783Z,10.30
2023-02-24T07:34:23.394Z,9.52
2023-02-24T07:36:52.899Z,9.38
2023-02-24T07:39:23.165Z,9.55
2023-02-24T07:41:51.908Z,9.20
2023-02-24T07:44:20.812Z,10.23
2023-02-24T07:46:49.289Z,9.55
2023-02-24T07:49:19.858Z,8.45
2023-02-24T07:51:52.950Z,8.88
2023-02-24T07:54:21.833Z,10.50
2023-02-24T07:56:56.717Z,8.18
2023-02-24T07:59:34.580Z,9.27
2023-02-24T08:02:07.505Z,8.60
2023-02-24T08:04:36.277Z,9.23
2023-02-24T08:07:04.200Z,8.20
2023-02-24T08:09:47.023Z,9.27
2023-02-24T08:12:21.616Z,8.32
2023-02-24T08:14:53.654Z,9.48
2023-02-24T08:17:26.777Z,9.20
2023-02-24T08:20:13.972Z,9.75
2023-02-24T08:22:44.318Z,9.65
2023-02-24T08:25:18.234Z,9.73
2023-02-24T08:28:06.898Z,8.82
2023-02-24T08:30:38.889Z,8.45
2023-02-24T08:33:09.355Z,8.95
2023-02-24T08:35:39.287Z,8.35
2023-02-24T08:38:18.972Z,9.88
2023-02-24T08:40:52.084Z,8.30
2023-02-24T08:43:30.484Z,8.70
2023-02-24T08:46:13.129Z,9.52
2023-02-24T08:48:43.348Z,8.38
2023-02-24T08:51:18.107Z,8.77
2023-02-24T08:53:46.806Z,10.48
2023-02-24T08:56:24.006Z,10.27
2023-02-24T08:58:57.125Z,10.18
2023-02-24T09:01:27.957Z,8.68
2023-02-24T09:03:58.514Z,9.55
2023-02-24T09:06:39.465Z,10.13
2023-02-24T09:09:21.250Z,8.90
2023-02-24T09:11:58.000Z,10.25
2023-02-24T09:14:36.390Z,9.43
2023-02-24T09:17:10.836Z,11.00
2023-02-24T09:19:45.931Z,9.68
2023-02-24T09:22:21.134Z,10.40
2023-02-24T09:24:51.066Z,11.68
2023-02-24T09:27:18.573Z,8.43
2023-02-24T09:29:49.289Z,11.68
2023-02-24T09:32:17.179Z,11.27
2023-02-24T09:34:44.767Z,12.10
2023-02-24T09:37:25.862Z,10.07
2023-02-24T09:39:54.476Z,8.13
2023-02-24T09:42:34.052Z,9.70
2023-02-24T09:45:33.109Z,9.10
2023-02-24T09:48:17.504Z,7.15
2023-02-24T09:51:03.741Z,10.65
2023-02-24T09:53:41.290Z,8.20
2023-02-24T09:56:22.797Z,9.27
2023-02-24T09:59:26.312Z,9.30
2023-02-24T10:02:32.890Z,9.82
2023-02-24T10:07:41.144Z,8.68
2023-02-24T10:10:19.654Z,8.70
2023-02-24T10:13:13.134Z,8.20
2023-02-24T10:15:58.921Z,8.10
2023-02-24T10:18:44.903Z,8.15
2023-02-24T10:22:00.405Z,9.07
2023-02-24T10:24:48.682Z,9.30
2023-02-24T10:27:37.197Z,9.02
2023-02-24T10:30:19.863Z,8.75
2023-02-24T10:32:58.759Z,8.65
2023-02-24T10:35:33.588Z,10.30
2023-02-24T10:38:08.609Z,8.45
2023-02-24T10:43:30.337Z,10.07
2023-02-24T10:46:06.185Z,9.50
2023-02-24T10:48:42.345Z,8.45
2023-02-24T10:51:31.824Z,7.68
2023-02-24T10:54:24.989Z,9.18
2023-02-24T10:57:07.474Z,9.85
2023-02-24T11:00:05.727Z,9.25
2023-02-24T11:03:08.158Z,7.03
2023-02-24T11:06:04.595Z,8.00
2023-02-24T11:08:54.609Z,8.40
2023-02-24T11:11:31.016Z,9.40
2023-02-24T11:14:19.954Z,9.00
2023-02-24T11:17:08.649Z,9.32
2023-02-24T11:20:10.740Z,8.02
2023-02-24T11:22:41.940Z,8.80
2023-02-24T11:25:24.286Z,8.60
2023-02-24T11:27:56.283Z,10.07
2023-02-24T11:30:49.684Z,9.48
2023-02-24T11:33:58.073Z,9.80
2023-02-24T11:36:33.669Z,9.25
2023-02-24T11:39:17.705Z,7.85
2023-02-24T11:41:53.031Z,7.80
2023-02-24T11:44:31.605Z,8.68
2023-02-24T11:47:07.218Z,7.85
2023-02-24T11:50:19.533Z,8.10
2023-02-24T11:52:49.525Z,7.43
2023-02-24T11:55:42.439Z,9.25
2023-02-24T11:58:20.702Z,8.07
2023-02-24T12:01:01.721Z,8.43
2023-02-24T12:03:39.595Z,7.22
2023-02-24T12:06:19.402Z,7.63
2023-02-24T12:08:53.938Z,8.35
2023-02-24T12:11:42.799Z,8.98
2023-02-24T12:14:18.759Z,10.73
2023-02-24T12:16:49.334Z,8.68
2023-02-24T12:19:42.940Z,8.25
2023-02-24T12:22:16.433Z,8.20
2023-02-24T12:24:49.963Z,9.13
2023-02-24T12:27:18.689Z,9.98
2023-02-24T12:29:49.392Z,7.28
2023-02-24T12:32:55.232Z,7.38
2023-02-24T12:38:25.480Z,7.88
2023-02-24T12:40:59.936Z,9.65
2023-02-24T12:43:32.815Z,7.38
2023-02-24T12:46:10.012Z,9.05
2023-02-24T12:48:49.074Z,8.40
2023-02-24T12:51:50.141Z,9.63
2023-02-24T12:55:10.359Z,9.32
2023-02-24T12:57:46.647Z,10.13
2023-02-24T13:00:37.272Z,8.52
2023-02-24T13:03:16.007Z,8.30
2023-02-24T13:06:02.650Z,7.63
2023-02-24T13:09:04.020Z,8.50
2023-02-24T13:12:06.643Z,13.82
2023-02-24T13:14:36.765Z,14.15
2023-02-24T13:17:06.649Z,17.65
2023-02-24T13:19:34.223Z,13.85
2023-02-24T13:22:11.272Z,15.02
2023-02-24T13:24:40.628Z,15.35
2023-02-24T13:27:14.718Z,15.30
2023-02-24T13:29:51.884Z,16.80
2023-02-24T13:32:33.026Z,15.00
2023-02-24T13:35:26.502Z,16.50
2023-02-24T13:37:54.655Z,15.73
2023-02-24T13:40:26.475Z,17.17
2023-02-24T13:42:59.827Z,15.13
2023-02-24T13:45:29.049Z,19.42
2023-02-24T13:48:14.820Z,16.33
2023-02-24T13:51:08.192Z,19.88
2023-02-24T13:53:59.965Z,17.60
2023-02-24T13:56:54.275Z,19.33
2023-02-24T14:00:13.188Z,14.70
2023-02-24T14:02:44.167Z,15.20
2023-02-24T14:05:37.308Z,16.23
2023-02-24T14:08:05.182Z,13.55
2023-02-24T14:10:34.702Z,20.30
2023-02-24T14:13:14.619Z,16.90
2023-02-24T14:15:44.977Z,16.08
2023-02-24T14:18:24.844Z,13.75
2023-02-24T14:20:53.660Z,14.45
2023-02-24T14:23:31.183Z,14.13
2023-02-24T14:26:00.434Z,14.60
2023-02-24T14:28:36.879Z,12.55
2023-02-24T14:31:11.238Z,13.27
2023-02-24T14:33:41.548Z,14.93
2023-02-24T14:36:22.791Z,14.98
2023-02-24T14:39:15.955Z,14.68
2023-02-24T14:41:45.089Z,14.88
2023-02-24T14:44:18.875Z,14.48
2023-02-24T14:46:47.989Z,14.63
2023-02-24T14:49:27.816Z,14.98
2023-02-24T14:52:05.098Z,23.17
2023-02-24T14:54:54.167Z,21.52
2023-02-24T14:57:28.816Z,23.50
2023-02-24T15:00:10.855Z,23.92
2023-02-24T15:02:46.031Z,22.55
2023-02-24T15:05:14.887Z,24.02
2023-02-24T15:07:45.242Z,23.20
2023-02-24T15:10:27.088Z,23.30
2023-02-24T15:13:10.787Z,24.77
2023-02-24T15:15:39.390Z,23.40
2023-02-24T15:18:19.935Z,22.65
2023-02-24T15:20:47.682Z,23.75
2023-02-24T15:23:33.885Z,23.83
2023-02-24T15:26:01.895Z,21.63
2023-02-24T15:28:35.900Z,21.65
2023-02-24T15:31:10.921Z,22.20
2023-02-24T15:33:44.932Z,20.27
2023-02-24T15:36:21.362Z,20.55
2023-02-24T15:38:52.757Z,20.15
2023-02-24T15:41:20.720Z,20.33
2023-02-24T15:43:52.670Z,22.17
2023-02-24T15:46:32.753Z,21.58
2023-02-24T15:49:03.307Z,22.48
2023-02-24T15:51:39.214Z,18.98
2023-02-24T15:54:10.984Z,24.20
2023-02-24T15:56:38.879Z,18.77
2023-02-24T15:59:06.278Z,22.35
2023-02-24T16:01:35.601Z,19.23
2023-02-24T16:04:04.772Z,21.50
2023-02-24T16:06:33.942Z,19.83
2023-02-24T16:09:05.177Z,19.25
2023-02-24T16:11:37.400Z,19.20
2023-02-24T16:14:04.705Z,22.13
2023-02-24T16:16:33.312Z,20.95
2023-02-24T16:19:00.615Z,20.20
2023-02-24T16:21:28.198Z,19.98
2023-02-24T16:23:56.075Z,19.30
2023-02-24T16:26:24.058Z,24.38
2023-02-24T16:28:56.820Z,18.85
2023-02-24T16:31:26.059Z,21.15
2023-02-24T16:33:55.841Z,21.50
2023-02-24T16:36:25.627Z,21.00
2023-02-24T16:38:53.184Z,22.55
2023-02-24T16:41:21.053Z,22.17
2023-02-24T16:43:48.551Z,19.73
2023-02-24T16:46:19.912Z,20.38
2023-02-24T16:48:50.047Z,19.92
2023-02-24T16:51:17.529Z,22.05
2023-02-24T16:53:45.326Z,21.08
2023-02-24T16:56:15.147Z,17.60
2023-02-24T16:58:42.874Z,19.88
2023-02-24T17:01:18.294Z,20.95
2023-02-24T17:03:49.350Z,18.20
2023-02-24T17:06:16.858Z,20.48
2023-02-24T17:08:46.014Z,18.17
2023-02-24T17:11:16.844Z,17.40
2023-02-24T17:13:44.318Z,20.55
2023-02-24T17:16:12.305Z,18.17
2023-02-24T17:18:39.584Z,19.33
2023-02-24T17:21:07.581Z,18.00
2023-02-24T17:23:34.833Z,17.58
2023-02-24T17:26:03.254Z,15.52
2023-02-24T17:28:31.247Z,20.92
2023-02-24T17:30:58.832Z,16.10
2023-02-24T17:33:26.073Z,17.45
2023-02-24T17:35:53.734Z,15.45
2023-02-24T17:38:23.330Z,16.10
2023-02-24T17:40:50.830Z,16.15
2023-02-24T17:43:18.618Z,17.27
2023-02-24T17:45:47.302Z,15.55
2023-02-24T17:48:15.619Z,17.58
2023-02-24T17:50:46.724Z,16.95
2023-02-24T17:53:14.700Z,14.93
2023-02-24T17:55:55.764Z,19.70
2023-02-24T17:58:27.096Z,16.40
2023-02-24T18:00:54.564Z,15.93
2023-02-24T18:03:21.793Z,16.58
2023-02-24T18:05:57.021Z,14.98
2023-02-24T18:08:24.227Z,14.98
2023-02-24T18:10:51.739Z,16.05
2023-02-24T18:13:19.281Z,17.63
2023-02-24T18:15:46.825Z,14.32
2023-02-24T18:18:14.188Z,14.88
2023-02-24T18:20:44.924Z,16.70
2023-02-24T18:23:12.686Z,16.25
2023-02-24T18:25:40.286Z,14.02
2023-02-24T18:28:07.585Z,17.27
2023-02-24T18:30:35.217Z,18.23
2023-02-24T18:33:02.706Z,19.63
2023-02-24T18:35:30.694Z,16.55
2023-02-24T18:38:00.512Z,17.02
2023-02-24T18:40:29.553Z,17.70
2023-02-24T18:42:56.837Z,19.23
2023-02-24T18:45:24.540Z,17.17
2023-02-24T18:47:52.626Z,16.00
2023-02-24T18:50:24.898Z,16.13
2023-02-24T18:52:52.136Z,24.40
2023-02-24T18:55:20.384Z,22.02
2023-02-24T18:57:47.681Z,18.63
2023-02-24T19:00:15.690Z,17.38
2023-02-24T19:02:43.039Z,16.50
2023-02-24T19:05:10.827Z,18.73
2023-02-24T19:07:38.154Z,18.15
2023-02-24T19:10:06.204Z,17.55
2023-02-24T19:12:33.603Z,15.43
2023-02-24T19:15:01.225Z,16.40
2023-02-24T19:17:28.399Z,17.20
2023-02-24T19:19:55.942Z,14.50
2023-02-24T19:22:24.039Z,16.20
2023-02-24T19:24:51.657Z,13.02
2023-02-24T19:27:18.997Z,18.17
2023-02-24T19:29:46.466Z,18.63
2023-02-24T19:32:13.722Z,16.73
2023-02-24T19:34:41.324Z,15.70
2023-02-24T19:37:08.673Z,14.70
2023-02-24T19:39:36.268Z,14.18
2023-02-24T19:42:04.018Z,14.23
2023-02-24T19:44:31.638Z,17.83
2023-02-24T19:46:58.993Z,13.75
2023-02-24T19:49:26.685Z,16.63
2023-02-24T19:51:55.286Z,15.68
2023-02-24T19:54:23.428Z,15.40
2023-02-24T19:56:52.341Z,15.82
2023-02-24T19:59:19.847Z,13.20
2023-02-24T20:01:51.669Z,16.00
2023-02-24T20:04:21.363Z,17.20
2023-02-24T20:06:49.497Z,15.52
2023-02-24T20:09:21.340Z,15.73
2023-02-24T20:11:51.574Z,14.40
2023-02-24T20:14:20.150Z,19.13
2023-02-24T20:16:47.842Z,16.17
2023-02-24T20:19:15.738Z,11.50
2023-02-24T20:21:43.124Z,14.15
2023-02-24T20:24:15.221Z,14.25
2023-02-24T20:26:46.944Z,13.85
2023-02-24T20:29:15.593Z,13.70
2023-02-24T20:31:43.426Z,16.27
2023-02-24T20:34:11.114Z,16.10
2023-02-24T20:36:38.426Z,13.02
2023-02-24T20:39:12.207Z,14.18
2023-02-24T20:41:41.360Z,12.10
2023-02-24T20:44:09.686Z,15.48
2023-02-24T20:46:37.425Z,14.68
2023-02-24T20:49:07.962Z,15.23
2023-02-24T20:51:39.531Z,13.30
2023-02-24T20:54:08.876Z,16.42
2023-02-24T20:56:38.621Z,17.73
2023-02-24T20:59:10.752Z,13.70
2023-02-24T21:01:39.274Z,16.25
2023-02-24T21:04:08.653Z,13.93
2023-02-24T21:06:36.999Z,14.38
2023-02-24T21:09:05.564Z,15.55
2023-02-24T21:11:33.152Z,15.98
2023-02-24T21:14:00.811Z,14.02
2023-02-24T21:16:28.235Z,14.75
2023-02-24T21:18:58.554Z,15.93
2023-02-24T21:21:26.453Z,15.85
2023-02-24T21:23:56.555Z,14.18
2023-02-24T21:26:26.719Z,13.13
2023-02-24T21:28:57.691Z,14.35
2023-02-24T21:31:26.386Z,13.82
2023-02-24T21:33:54.989Z,14.52
2023-02-24T21:36:25.664Z,13.48
2023-02-24T21:38:54.922Z,14.73
2023-02-24T21:41:23.570Z,16.35
2023-02-24T21:43:55.390Z,15.18
2023-02-24T21:46:25.939Z,15.02
2023-02-24T21:48:55.452Z,15.23
2023-02-24T21:51:24.769Z,14.93
2023-02-24T21:53:54.922Z,16.33
2023-02-24T21:56:26.230Z,14.82
2023-02-24T21:59:04.875Z,13.93
2023-02-24T22:01:34.788Z,14.35
2023-02-24T22:04:06.273Z,15.10
2023-02-24T22:06:36.029Z,14.32
2023-02-24T22:09:05.878Z,12.60
2023-02-24T22:11:36.942Z,16.92
2023-02-24T22:14:07.945Z,15.70
2023-02-24T22:16:35.689Z,15.63
2023-02-24T22:19:04.134Z,16.48
2023-02-24T22:21:31.928Z,14.73
2023-02-24T22:24:02.218Z,17.15
2023-02-24T22:26:30.582Z,18.23
2023-02-24T22:28:58.972Z,17.58
2023-02-24T22:31:29.661Z,17.48
2023-02-24T22:33:58.517Z,17.55
2023-02-24T22:36:33.384Z,16.48
2023-02-24T22:39:01.762Z,16.83
2023-02-24T22:41:33.961Z,16.13
2023-02-24T22:44:03.651Z,16.13
2023-02-24T22:46:33.692Z,14.45
2023-02-24T22:49:01.551Z,15.93
2023-02-24T22:51:28.840Z,15.98
2023-02-24T22:53:56.564Z,17.95
2023-02-24T22:56:27.102Z,17.08
2023-02-24T22:58:55.154Z,17.25
2023-02-24T23:01:31.781Z,15.88
2023-02-24T23:04:02.083Z,14.48
2023-02-24T23:06:30.243Z,16.60
2023-02-24T23:08:59.465Z,16.58
2023-02-24T23:11:32.568Z,15.82
2023-02-24T23:14:03.404Z,15.57
2023-02-24T23:16:33.444Z,15.82
2023-02-24T23:19:04.271Z,14.27
2023-02-24T23:21:33.809Z,16.90
2023-02-24T23:24:01.830Z,15.88
2023-02-24T23:26:41.834Z,16.45
2023-02-24T23:29:11.579Z,15.35
2023-02-24T23:31:40.657Z,14.77
2023-02-24T23:34:08.366Z,16.05
2023-02-24T23:36:38.535Z,14.25
2023-02-24T23:39:07.775Z,17.95
2023-02-24T23:41:37.081Z,14.90
2023-02-24T23:44:05.759Z,13.82
2023-02-24T23:46:34.707Z,14.55
2023-02-24T23:49:02.671Z,15.63
2023-02-24T23:51:45.817Z,14.05
2023-02-24T23:56:42.910Z,13.15
2023-02-24T23:59:11.095Z,16.10
